ASN logo
ASN Wikibase Occurrence # 235634
Last updated: 13 August 2020
This information is added by users of ASN. Neither ASN nor the Flight Safety Foundation are responsible for the completeness or correctness of this information. If you feel this information is incomplete or incorrect, you can submit corrected information.

Date:30-APR-2020
Time:c. 13:00 UTC
Type:Silhouette image of generic B788 model; specific model in this crash may look slightly different
Boeing 787-8 Dreamliner
Owner/operator:Qatar Airways
Registration: A7-BCT
C/n / msn: 38338/266
Fatalities:Fatalities: 0 / Occupants: 0
Other fatalities:0
Aircraft damage: Minor
Location:Doha-Hamad International Airport (DOH) -   Qatar
Phase: Standing
Nature:-
Departure airport:-
Destination airport:-
Narrative:
In strong winds, a parked Boeing 787 Dreamliner of Qatar Airways (A7-BCT) turned 45° to the left and was then blown into a parked A350. The nose of the aircraft hit the right-hand forward fuselage of the A350.
Both aircraft were parked at a remote stand.

Metar weather report during the storm:
OTHH 301400Z 14016G39KT 110V180 7000 -TSRA SCT035 FEW040CB BKN100 33/18 Q1002 NOSIG
OTHH 301300Z 17018G33KT 150V210 7000 R16L/1000D R16R/P2000N -TSRA SCT035 FEW040CB BKN100 32/19 Q1002 NOSIG
OTHH 301200Z 10009KT 070V150 6000 -TSRA FEW035 FEW040CB OVC100 34/20 Q1001 NOSIG

Sources:

http://www.goklerdeyiz.net/boeing-787-park-yerinde-siddetli-ruzgardan-dondu-baska-bir-ucaga-carpti/


Images:

Photo of A7-BCT courtesy AirHistory.net


Helsinki - Vantaa (EFHK / HEL)
12 May 2018; (c) Pertti Sipilä

Revision history:

Date/timeContributorUpdates
01-May-2020 07:11 Goklerdeyiz.net Added
01-May-2020 07:27 harro Updated [Time, Total occupants, Other fatalities, Location, Nature, Departure airport, Destination airport, Embed code, Narrative]
01-May-2020 07:29 harro Updated [Embed code]
01-May-2020 07:29 harro Updated [Source]
02-May-2020 10:47 harro Updated [Embed code]

Corrections or additions? ... Edit this accident description